No particular awareness of the weather is required.    There are no Weather-warnings
 Banner
iom-flag.gif  iom-flag.gif


Ballaugh webcam more information Ballaugh webcam


Thunder radar more information blitzortung!


Rain radar more information rain snow radar


Visit our other weather sites:

Template documentation
and downloads

And another site



Nearby METAR Reports

   
EGNS - Isle Of Man/Rona, United Kingdom
Distance from station: SSW 16 mi
Updated: 24-05-2019 01:50
Few Clouds  
Few Clouds  
   Wind: varies 2.3 mph
Wind: varies 2.3 mph
Temperature: 9°C
Dew Point: 4°C
Humidity: 71%
Barometer: 1017 hPa
Clouds: Few Clouds
Visibility: More than 6 mi
Cloud details: Few Clouds 3500 ft
EGNS 240050Z VRB02KT 9999 FEW035 09/04 Q1017
EGAC - Belfast Harbour, United Kingdom
Distance from station: WNW 57 mi
Updated: 24-05-2019 01:50
Clear  
Clear  
   Wind: varies 3.5 mph
Wind: varies 3.5 mph
Temperature: 10°C
Wind Chill: 9°C
Dew Point: 5°C
Humidity: 71%
Barometer: 1017 hPa
Clouds: Clear
Visibility: More than 6 mi
Cloud details: Clear ft
EGAC 240050Z AUTO VRB03KT 9999 NCD 10/05 Q1017
EGAA - Belfast/Aldergro, United Kingdom
Distance from station: WNW 71 mi
Updated: 24-05-2019 01:50
Overcast  
Overcast  
   Wind: ENE 2.3 mph
Wind: ENE 2.3 mph
Temperature: 9°C
Dew Point: 5°C
Humidity: 76%
Barometer: 1017 hPa
Clouds: Overcast
Visibility: More than 6 mi
Cloud details: Mostly Cloudy 3000 ft,
Mostly Cloudy 3600 ft,
Overcast 4400 ft
EGAA 240050Z 06002KT 9999 BKN030 BKN036 OVC044 09/05 Q1017
EGNH - Blackpool Airpor, United Kingdom
Distance from station: ESE 73 mi
Updated: 23-05-2019 20:50
NOT Current
Clear  
Clear  
   Wind: West 9.2 mph
Wind: West 9.2 mph
Temperature: 13°C
Dew Point: 10°C
Humidity: 82%
Barometer: 1016 hPa
Visibility: More than 6 mi
Cloud details: Clear ft
EGNH 231950Z 28008KT CAVOK 13/10 Q1016
EGOV - Valley Raf, United Kingdom
Distance from station: S 73 mi
Updated: 24-05-2019 00:50
Mostly Cloudy  
Mostly Cloudy  
   Wind: SSW 6.9 mph
Wind: SSW 6.9 mph
Temperature: 12°C
Dew Point: 11°C
Humidity: 94%
Barometer: 1017 hPa
Clouds: Mostly Cloudy
Visibility: More than 6 mi
Cloud details: Mostly Cloudy 4400 ft
EGOV 232350Z AUTO 20006KT 9999 BKN044/// 12/11 Q1017
EGPK - Prestwick(Civ/Na, United Kingdom
Distance from station: N 82 mi
Updated: 24-05-2019 01:50
Partly Cloudy  
Partly Cloudy  
   Wind: WNW 15 mph
Wind: WNW 15 mph
Temperature: 10°C
Wind Chill: 7°C
Dew Point: 8°C
Humidity: 88%
Barometer: 1016 hPa
Clouds: Partly Cloudy
Visibility: More than 6 mi
Cloud details: Few Clouds 1500 ft,
Partly Cloudy 2500 ft
EGPK 240050Z 30013KT 9999 FEW015 SCT025 10/08 Q1016
EIDW - Dublin Airport, Ireland
Distance from station: SW 93 mi
Updated: 24-05-2019 01:30
Mostly Cloudy  
Mostly Cloudy  
   Wind: WSW 5.8 mph
Wind: WSW 5.8 mph
Temperature: 13°C
Dew Point: 11°C
Humidity: 88%
Barometer: 1017 hPa
Clouds: Mostly Cloudy
Visibility: More than 6 mi
Cloud details: Few Clouds 2000 ft,
Mostly Cloudy 3800 ft,
Mostly Cloudy 7000 ft
EIDW 240030Z 25005KT 210V290 9999 FEW020 BKN038 BKN070 13/11 Q1017 NOSIG
EGGP - Liverpool Airpor, United Kingdom
Distance from station: SE 98 mi
Updated: 24-05-2019 01:50
Clear  
Clear  
   Wind: NW 9.2 mph
Wind: NW 9.2 mph
Temperature: 12°C
Dew Point: 10°C
Humidity: 88%
Barometer: 1016 hPa
Visibility: More than 6 mi
Cloud details: Clear ft
EGGP 240050Z 31008KT CAVOK 12/10 Q1016
EGPF - Glasgow Airport, United Kingdom
Distance from station: N 107 mi
Updated: 24-05-2019 01:50
Mostly Cloudy  
Mostly Cloudy  
   Wind: West 15 mph
Wind: West 15 mph
Temperature: 10°C
Wind Chill: 7°C
Dew Point: 5°C
Humidity: 71%
Barometer: 1015 hPa
Clouds: Mostly Cloudy
Visibility: More than 6 mi
Cloud details: Mostly Cloudy 2300 ft
EGPF 240050Z AUTO 26013KT 9999 BKN023 10/05 Q1015
EGCC - Manchester Intl, United Kingdom
Distance from station: SE 114 mi
Updated: 24-05-2019 01:50
Clear  
Clear  
   Wind: WNW 2.3 mph
Wind: WNW 2.3 mph
Temperature: 11°C
Dew Point: 10°C
Humidity: 94%
Barometer: 1016 hPa
Clouds: Clear
Visibility: 4 mi
Cloud details: Clear ft
EGCC 240050Z AUTO 29002KT 7000 NCD 11/10 Q1016
EGNM - Leeds And Bradfo, United Kingdom
Distance from station: ESE 122 mi
Updated: 24-05-2019 01:50
Clear  
Clear  
   Wind: West 9.2 mph
Wind: West 9.2 mph
Temperature: 9°C
Wind Chill: 7°C
Dew Point: 8°C
Humidity: 94%
Barometer: 1014 hPa
Visibility: More than 6 mi
Cloud details: Clear ft
EGNM 240050Z 27008KT 230V310 CAVOK 09/08 Q1014
 

Script developed by  Saratoga-weather.org Adapted for the template by  Weerstation Leuven

You find our weather info also at:

UK Metoffice

WeatherCloud

WeatherlinkIP

Equipment we use:

Weather-station
Davis VP2

Weather-program
Weather Display

Weather-server
My Computer

Provider
Fasthosts

Davis VP2

Weather Display

My Computer

Fasthosts

 Banner1
iom-flag.gif  iom-flag.gif
Flag Counter 

Hits since site created in 2003